Aeroporto :
LOGIN :

Iscrizione | Disclaimer

   EN    FR    IT 

 










Sommario :    VFR   VFR Marginale   IFR   IFR Intensivo   IFR Molto Intensivo
Visibilità : 
Base nubi : 
>= 8 km
>= 3000ft
5 / 8 km
1000 / 3000 ft
1500m / 5 km
500 / 1000 ft
800 / 1500m
200 / 500 ft
< 800m
< 200 ft
Simboli :   Temporali  Nebbia  Neve Forte  Precipitazioni Forti  Vento > 20 kt
SIGMETs :   Varie  Temporali  Ghiacco  Turbolenza  Onda orograficha  Ceneri Vulcaniche






- Altitudine del aeroporto : 170 ft
- Codice IATA : KRP


EKKA - Karup

ULTIMO METAR :
  • 201120Z AUTO 13002KT 9999 FEW086/// 08/03 Q1020 NOSIG

METARs OBSOLETI :
  • 201050Z AUTO 12001KT 9999 BKN087/// 07/04 Q1020 NOSIG
  • 201020Z AUTO 33002KT 9999 SCT096/// 06/04 Q1020 NOSIG
  • 200950Z AUTO 31001KT 9999 BKN042/// 06/03 Q1020 NOSIG
  • 200920Z AUTO 12001KT 9999 FEW042/// SCT057/// 05/03 Q1020 NOSIG
  • 200850Z AUTO 15003KT 9999 FEW043/// 03/02 Q1020 NOSIG

TAF TAF EKKA
Valido dal 20 a 12 ore il 21 a 12 ore UTC


201116Z 2012/2112 VRB03KT 9999 SCT030
BECMG 2013/2016 04005KT
BECMG 2018/2020 4000 -RADZ BR BKN008
TEMPO 2020/2109 1200 BKN002
BECMG 2023/2002 15010KT
BECMG 2109/2111 9999 NSW SCT020



MetMap, La meteo Aeronautica in un colpo d'occhio ! - Copyright ORBIFLY Dicembre 2007 - Disclaimer

ORBIFLY MET'MAP TEAM :

Programmazione e sviluppo : Alexandra Zaïnal
Concezione e sviluppo : Baudouin d'Aumeries
Co-Programmazione e sviluppo : Marc-Olivier Méhu
Supporto tecnico e logistico : Manuel Goepfert
Aiuto per la traduzione : Arnaldo La Scala

Contatto : metmap@orbifly.com




FONTI E CREDITI :

   NOAA